KMKL/MKL METAR and TAF weather

Enter ICAO airport designator
Station Type Date Time Source
KMKL METAR 2019/04/25 15:53 UTC NOAA

KMKL 251553Z 19015G22KT 10SM CLR 20/14 A2975 RMK AO2 SLP069 T02000144


Station Type Date Time Source
KMKL Decoded METAR 2019/04/25 15:53 UTC NOAA

JACKSON MCKELLAR-SIPES RGNL, TN, United States (KMKL) 35-36N 088-55W 128M
Apr 25, 2019 - 11:53 AM EDT / 2019.04.25 1553 UTC
Wind: from the S (190 degrees) at 17 MPH (15 KT) gusting to 25 MPH (22 KT):0
Visibility: 10 mile(s):0
Sky conditions: clear
Temperature: 68.0 F (20.0 C)
Dew Point: 57.9 F (14.4 C)
Relative Humidity: 70%
Pressure (altimeter): 29.75 in. Hg (1007 hPa)
ob: KMKL 251553Z 19015G22KT 10SM CLR 20/14 A2975 RMK AO2 SLP069 T02000144
cycle: 16

Station Type Date Time Source
KMKL TAF 2019/04/25 14:04 UTC NOAA

TAF
AMD KMKL 251402Z 2514/2612 17009KT P6SM FEW030 BKN100
FM251900 19012G20KT P6SM VCSH OVC040
FM252100 25013G20KT P6SM VCTS OVC035CB
FM260200 27013KT P6SM VCSH OVC015
FM260600 27012KT P6SM OVC015

Example: see airport list